Estación Meteorológica Peña el Pijo (Robertgarden) [ 11/20/17 01:24:45 CET ]

Fecha Hora Presion(HPa) Temp (°C) Humedad % Rocio (°C) Viento ( m/s) Direccion Lluvia 1Hora(mm) Lluvia 24H(mm) LLuvia Total(mm)
2017-Nov-03 01:01:41 1008.300 5.5 83 2.8         1466.45
2017-Nov-03 02:06:10 1008.100 4.9 83 2.2         1466.45
2017-Nov-03 03:01:41 1007.900 5.1 85 2.8         1466.45
2017-Nov-03 04:01:47 1006.900 5.6 86 3.4         1466.45
2017-Nov-03 05:01:44 1006.600 6.3 86 4.1         1466.45
2017-Nov-03 06:01:50 1006.300 6.3 86 4.1         1466.45
2017-Nov-03 07:01:44 1006.300 6.4 87 4.4         1466.45
2017-Nov-03 08:01:43 1006.700 6.1 87 4.1         1466.45
2017-Nov-03 09:01:43 1006.800 7.0 87 5.0         1466.45
2017-Nov-03 10:02:03 1006.800 14.3 83 11.4         1466.45
2017-Nov-03 11:01:48 1006.600 21.7 48 10.2         1466.45
2017-Nov-03 12:01:48 1006.500 21.8 28 2.4 0.8 WNW     1466.45
2017-Nov-03 13:01:46 1005.600 24.8 24 2.6         1466.45
2017-Nov-03 14:01:43 1004.900 25.8 23 2.9 1.0 N     1466.45
2017-Nov-03 15:01:54 1004.900 23.1 25 1.8 2.5 WNW     1466.45
2017-Nov-03 16:01:37 1004.700 21.6 27 1.6         1466.45
2017-Nov-03 17:01:49 1004.700 20.0 30 1.9         1466.45
2017-Nov-03 18:01:53 1004.900 17.5 43 4.7         1466.45
2017-Nov-03 19:01:46 1005.200 15.3 50 5.0         1466.45
2017-Nov-03 20:01:43 1005.600 13.2 56 4.6         1466.45
2017-Nov-03 21:01:37 1005.600 11.7 61 4.4         1466.45
2017-Nov-03 22:01:49 1005.700 11.3 63 4.5         1466.45
2017-Nov-03 23:01:44 1005.800 11.1 64 4.5         1466.45

Temperatura Máxima:25°    Temperatura Mínima:
Presión Máxima:1008.300 Hpa    Presión Mínima:1004.700 Hpa


Volver